sensor_id;sensor_type;location;lat;lon;timestamp;P1;durP1;ratioP1;P2;durP2;ratioP2
29906;SDS011;16776;50.958;10.994;2023-12-07T00:02:05;4.38;;;3.38;;
29906;SDS011;16776;50.958;10.994;2023-12-07T00:04:31;4.18;;;3.13;;
29906;SDS011;16776;50.958;10.994;2023-12-07T00:06:58;4.70;;;3.28;;
29906;SDS011;16776;50.958;10.994;2023-12-07T00:09:26;4.20;;;3.13;;
29906;SDS011;16776;50.958;10.994;2023-12-07T00:11:52;4.78;;;3.25;;
29906;SDS011;16776;50.958;10.994;2023-12-07T00:14:19;5.10;;;3.58;;
29906;SDS011;16776;50.958;10.994;2023-12-07T00:16:45;4.18;;;2.88;;
29906;SDS011;16776;50.958;10.994;2023-12-07T00:19:12;4.65;;;2.90;;
29906;SDS011;16776;50.958;10.994;2023-12-07T00:21:38;3.85;;;3.03;;
29906;SDS011;16776;50.958;10.994;2023-12-07T00:24:05;4.47;;;3.17;;
29906;SDS011;16776;50.958;10.994;2023-12-07T00:26:33;4.65;;;3.20;;
29906;SDS011;16776;50.958;10.994;2023-12-07T00:29:00;3.78;;;3.15;;
29906;SDS011;16776;50.958;10.994;2023-12-07T00:31:26;4.50;;;3.10;;
29906;SDS011;16776;50.958;10.994;2023-12-07T00:33:53;3.92;;;2.92;;
29906;SDS011;16776;50.958;10.994;2023-12-07T00:36:19;4.13;;;3.05;;
29906;SDS011;16776;50.958;10.994;2023-12-07T00:38:46;5.03;;;3.60;;
29906;SDS011;16776;50.958;10.994;2023-12-07T00:41:13;5.68;;;3.33;;
29906;SDS011;16776;50.958;10.994;2023-12-07T00:43:41;3.58;;;2.70;;
29906;SDS011;16776;50.958;10.994;2023-12-07T00:46:07;3.78;;;2.83;;
29906;SDS011;16776;50.958;10.994;2023-12-07T00:48:34;5.28;;;3.42;;
29906;SDS011;16776;50.958;10.994;2023-12-07T00:51:01;3.95;;;3.05;;
29906;SDS011;16776;50.958;10.994;2023-12-07T00:53:27;3.85;;;3.08;;
29906;SDS011;16776;50.958;10.994;2023-12-07T00:55:54;4.63;;;3.42;;
29906;SDS011;16776;50.958;10.994;2023-12-07T00:58:20;4.38;;;3.22;;
29906;SDS011;16776;50.958;10.994;2023-12-07T01:00:49;3.70;;;2.95;;
29906;SDS011;16776;50.958;10.994;2023-12-07T01:03:16;4.07;;;3.08;;
29906;SDS011;16776;50.958;10.994;2023-12-07T01:05:42;4.30;;;3.35;;
29906;SDS011;16776;50.958;10.994;2023-12-07T01:08:09;3.97;;;2.60;;
29906;SDS011;16776;50.958;10.994;2023-12-07T01:10:35;4.25;;;3.10;;
29906;SDS011;16776;50.958;10.994;2023-12-07T01:13:02;4.93;;;3.20;;
29906;SDS011;16776;50.958;10.994;2023-12-07T01:15:28;3.40;;;2.95;;
29906;SDS011;16776;50.958;10.994;2023-12-07T01:17:56;4.68;;;3.15;;
29906;SDS011;16776;50.958;10.994;2023-12-07T01:20:23;4.72;;;3.17;;
29906;SDS011;16776;50.958;10.994;2023-12-07T01:22:49;3.63;;;2.80;;
29906;SDS011;16776;50.958;10.994;2023-12-07T01:25:16;3.95;;;2.88;;
29906;SDS011;16776;50.958;10.994;2023-12-07T01:27:46;5.50;;;3.95;;
29906;SDS011;16776;50.958;10.994;2023-12-07T01:30:13;4.15;;;2.90;;
29906;SDS011;16776;50.958;10.994;2023-12-07T01:32:39;4.10;;;3.10;;
29906;SDS011;16776;50.958;10.994;2023-12-07T01:35:08;3.67;;;2.80;;
29906;SDS011;16776;50.958;10.994;2023-12-07T01:37:34;3.90;;;3.00;;
29906;SDS011;16776;50.958;10.994;2023-12-07T01:40:01;2.92;;;2.58;;
29906;SDS011;16776;50.958;10.994;2023-12-07T01:42:30;4.25;;;3.20;;
29906;SDS011;16776;50.958;10.994;2023-12-07T01:44:57;3.10;;;2.60;;
29906;SDS011;16776;50.958;10.994;2023-12-07T01:47:24;4.05;;;2.97;;
29906;SDS011;16776;50.958;10.994;2023-12-07T01:49:50;3.35;;;2.72;;
29906;SDS011;16776;50.958;10.994;2023-12-07T01:52:18;4.20;;;3.08;;
29906;SDS011;16776;50.958;10.994;2023-12-07T01:54:47;4.13;;;2.88;;
29906;SDS011;16776;50.958;10.994;2023-12-07T01:57:14;4.28;;;3.35;;
29906;SDS011;16776;50.958;10.994;2023-12-07T01:59:40;3.42;;;2.90;;
29906;SDS011;16776;50.958;10.994;2023-12-07T02:02:07;4.68;;;3.30;;
29906;SDS011;16776;50.958;10.994;2023-12-07T02:04:34;4.45;;;3.05;;
29906;SDS011;16776;50.958;10.994;2023-12-07T02:07:00;3.63;;;2.92;;
29906;SDS011;16776;50.958;10.994;2023-12-07T02:09:30;4.00;;;2.60;;
29906;SDS011;16776;50.958;10.994;2023-12-07T02:11:57;4.88;;;3.45;;
29906;SDS011;16776;50.958;10.994;2023-12-07T02:14:23;3.92;;;2.90;;
29906;SDS011;16776;50.958;10.994;2023-12-07T02:16:51;4.03;;;3.30;;
29906;SDS011;16776;50.958;10.994;2023-12-07T02:19:28;5.72;;;3.40;;
29906;SDS011;16776;50.958;10.994;2023-12-07T02:22:14;5.35;;;3.35;;
29906;SDS011;16776;50.958;10.994;2023-12-07T02:24:48;4.20;;;2.92;;
29906;SDS011;16776;50.958;10.994;2023-12-07T02:30:13;4.60;;;2.60;;
29906;SDS011;16776;50.958;10.994;2023-12-07T02:32:40;4.82;;;3.08;;
29906;SDS011;16776;50.958;10.994;2023-12-07T02:35:09;3.97;;;3.05;;
29906;SDS011;16776;50.958;10.994;2023-12-07T02:37:40;4.45;;;2.63;;
29906;SDS011;16776;50.958;10.994;2023-12-07T02:40:08;5.63;;;3.55;;
29906;SDS011;16776;50.958;10.994;2023-12-07T02:42:37;3.85;;;2.65;;
29906;SDS011;16776;50.958;10.994;2023-12-07T02:45:07;3.85;;;2.50;;
29906;SDS011;16776;50.958;10.994;2023-12-07T02:47:35;3.05;;;2.53;;
29906;SDS011;16776;50.958;10.994;2023-12-07T02:50:02;3.15;;;2.50;;
29906;SDS011;16776;50.958;10.994;2023-12-07T02:52:29;3.25;;;2.28;;
29906;SDS011;16776;50.958;10.994;2023-12-07T02:54:55;3.95;;;2.75;;
29906;SDS011;16776;50.958;10.994;2023-12-07T02:57:22;3.72;;;2.80;;
29906;SDS011;16776;50.958;10.994;2023-12-07T02:59:49;3.10;;;2.50;;
29906;SDS011;16776;50.958;10.994;2023-12-07T03:02:16;3.55;;;2.78;;
29906;SDS011;16776;50.958;10.994;2023-12-07T03:04:44;3.92;;;2.78;;
29906;SDS011;16776;50.958;10.994;2023-12-07T03:07:10;4.53;;;2.80;;
29906;SDS011;16776;50.958;10.994;2023-12-07T03:09:37;3.45;;;2.55;;
29906;SDS011;16776;50.958;10.994;2023-12-07T03:12:04;3.33;;;2.50;;
29906;SDS011;16776;50.958;10.994;2023-12-07T03:14:31;3.72;;;2.75;;
29906;SDS011;16776;50.958;10.994;2023-12-07T03:16:57;2.65;;;2.40;;
29906;SDS011;16776;50.958;10.994;2023-12-07T03:19:25;4.75;;;3.05;;
29906;SDS011;16776;50.958;10.994;2023-12-07T03:21:52;4.03;;;2.92;;
29906;SDS011;16776;50.958;10.994;2023-12-07T03:24:18;4.88;;;3.15;;
29906;SDS011;16776;50.958;10.994;2023-12-07T03:26:45;5.40;;;3.40;;
29906;SDS011;16776;50.958;10.994;2023-12-07T03:29:11;3.03;;;2.67;;
29906;SDS011;16776;50.958;10.994;2023-12-07T03:31:38;4.72;;;3.03;;
29906;SDS011;16776;50.958;10.994;2023-12-07T03:34:05;3.45;;;2.50;;
29906;SDS011;16776;50.958;10.994;2023-12-07T03:36:33;4.25;;;2.95;;
29906;SDS011;16776;50.958;10.994;2023-12-07T03:38:59;4.82;;;2.92;;
29906;SDS011;16776;50.958;10.994;2023-12-07T03:41:28;4.35;;;3.45;;
29906;SDS011;16776;50.958;10.994;2023-12-07T03:43:54;4.25;;;3.15;;
29906;SDS011;16776;50.958;10.994;2023-12-07T03:46:21;3.90;;;3.13;;
29906;SDS011;16776;50.958;10.994;2023-12-07T03:48:47;4.25;;;2.88;;
29906;SDS011;16776;50.958;10.994;2023-12-07T03:51:14;4.93;;;3.63;;
29906;SDS011;16776;50.958;10.994;2023-12-07T03:53:43;6.38;;;3.65;;
29906;SDS011;16776;50.958;10.994;2023-12-07T03:56:09;4.22;;;3.08;;
29906;SDS011;16776;50.958;10.994;2023-12-07T03:58:36;4.75;;;3.53;;
29906;SDS011;16776;50.958;10.994;2023-12-07T04:01:03;5.03;;;3.35;;
29906;SDS011;16776;50.958;10.994;2023-12-07T04:03:29;4.05;;;3.10;;
29906;SDS011;16776;50.958;10.994;2023-12-07T04:05:56;4.25;;;3.25;;
29906;SDS011;16776;50.958;10.994;2023-12-07T04:08:22;5.13;;;3.42;;
29906;SDS011;16776;50.958;10.994;2023-12-07T04:10:50;4.43;;;3.45;;
29906;SDS011;16776;50.958;10.994;2023-12-07T04:13:17;5.18;;;3.65;;
29906;SDS011;16776;50.958;10.994;2023-12-07T04:15:44;7.65;;;2.83;;
29906;SDS011;16776;50.958;10.994;2023-12-07T04:18:10;3.95;;;3.17;;
29906;SDS011;16776;50.958;10.994;2023-12-07T04:20:37;4.72;;;3.60;;
29906;SDS011;16776;50.958;10.994;2023-12-07T04:23:03;5.53;;;3.95;;
29906;SDS011;16776;50.958;10.994;2023-12-07T04:25:30;6.70;;;3.65;;
29906;SDS011;16776;50.958;10.994;2023-12-07T04:27:58;6.25;;;3.72;;
29906;SDS011;16776;50.958;10.994;2023-12-07T04:30:25;5.50;;;4.15;;
29906;SDS011;16776;50.958;10.994;2023-12-07T04:32:51;5.50;;;3.85;;
29906;SDS011;16776;50.958;10.994;2023-12-07T04:35:18;5.90;;;4.15;;
29906;SDS011;16776;50.958;10.994;2023-12-07T04:37:44;5.57;;;3.67;;
29906;SDS011;16776;50.958;10.994;2023-12-07T04:40:11;5.50;;;4.13;;
29906;SDS011;16776;50.958;10.994;2023-12-07T04:42:38;6.78;;;4.57;;
29906;SDS011;16776;50.958;10.994;2023-12-07T04:45:06;5.93;;;3.95;;
29906;SDS011;16776;50.958;10.994;2023-12-07T04:47:33;5.60;;;3.97;;
29906;SDS011;16776;50.958;10.994;2023-12-07T04:50:00;9.60;;;3.88;;
29906;SDS011;16776;50.958;10.994;2023-12-07T04:52:27;6.05;;;4.18;;
29906;SDS011;16776;50.958;10.994;2023-12-07T04:54:53;4.93;;;3.90;;
29906;SDS011;16776;50.958;10.994;2023-12-07T04:57:20;5.90;;;3.90;;
29906;SDS011;16776;50.958;10.994;2023-12-07T04:59:46;6.00;;;4.00;;
29906;SDS011;16776;50.958;10.994;2023-12-07T05:02:14;7.22;;;4.18;;
29906;SDS011;16776;50.958;10.994;2023-12-07T05:04:41;6.40;;;4.35;;
29906;SDS011;16776;50.958;10.994;2023-12-07T05:07:08;5.40;;;3.90;;
29906;SDS011;16776;50.958;10.994;2023-12-07T05:09:34;5.57;;;4.22;;
29906;SDS011;16776;50.958;10.994;2023-12-07T05:12:01;6.82;;;4.18;;
29906;SDS011;16776;50.958;10.994;2023-12-07T05:14:28;6.03;;;4.25;;
29906;SDS011;16776;50.958;10.994;2023-12-07T05:16:54;7.53;;;4.13;;
29906;SDS011;16776;50.958;10.994;2023-12-07T05:19:22;7.30;;;4.10;;
29906;SDS011;16776;50.958;10.994;2023-12-07T05:21:49;6.97;;;3.85;;
29906;SDS011;16776;50.958;10.994;2023-12-07T05:24:16;8.30;;;4.32;;
29906;SDS011;16776;50.958;10.994;2023-12-07T05:26:42;5.93;;;4.22;;
29906;SDS011;16776;50.958;10.994;2023-12-07T05:29:11;6.90;;;4.82;;
29906;SDS011;16776;50.958;10.994;2023-12-07T05:31:38;6.25;;;4.40;;
29906;SDS011;16776;50.958;10.994;2023-12-07T05:34:04;5.45;;;3.70;;
29906;SDS011;16776;50.958;10.994;2023-12-07T05:36:33;4.38;;;3.47;;
29906;SDS011;16776;50.958;10.994;2023-12-07T05:38:59;4.03;;;2.50;;
29906;SDS011;16776;50.958;10.994;2023-12-07T05:41:26;5.00;;;2.92;;
29906;SDS011;16776;50.958;10.994;2023-12-07T05:43:53;5.32;;;3.58;;
29906;SDS011;16776;50.958;10.994;2023-12-07T05:46:20;4.53;;;3.53;;
29906;SDS011;16776;50.958;10.994;2023-12-07T05:48:46;5.13;;;3.85;;
29906;SDS011;16776;50.958;10.994;2023-12-07T05:51:13;6.35;;;3.75;;
29906;SDS011;16776;50.958;10.994;2023-12-07T05:53:42;4.70;;;3.38;;
29906;SDS011;16776;50.958;10.994;2023-12-07T05:56:09;4.88;;;3.47;;
29906;SDS011;16776;50.958;10.994;2023-12-07T05:58:36;4.30;;;3.17;;
29906;SDS011;16776;50.958;10.994;2023-12-07T06:01:03;5.28;;;4.07;;
29906;SDS011;16776;50.958;10.994;2023-12-07T06:03:32;5.65;;;3.88;;
29906;SDS011;16776;50.958;10.994;2023-12-07T06:06:00;4.63;;;3.40;;
29906;SDS011;16776;50.958;10.994;2023-12-07T06:08:26;6.38;;;4.05;;
29906;SDS011;16776;50.958;10.994;2023-12-07T06:10:54;5.13;;;3.42;;
29906;SDS011;16776;50.958;10.994;2023-12-07T06:13:21;4.75;;;3.92;;
29906;SDS011;16776;50.958;10.994;2023-12-07T06:15:47;4.22;;;3.10;;
29906;SDS011;16776;50.958;10.994;2023-12-07T06:18:14;4.07;;;3.22;;
29906;SDS011;16776;50.958;10.994;2023-12-07T06:20:41;3.70;;;2.78;;
29906;SDS011;16776;50.958;10.994;2023-12-07T06:23:08;4.55;;;3.45;;
29906;SDS011;16776;50.958;10.994;2023-12-07T06:25:37;4.90;;;2.95;;
29906;SDS011;16776;50.958;10.994;2023-12-07T06:28:05;4.22;;;3.08;;
29906;SDS011;16776;50.958;10.994;2023-12-07T06:30:32;4.85;;;3.65;;
29906;SDS011;16776;50.958;10.994;2023-12-07T06:32:59;6.18;;;3.55;;
29906;SDS011;16776;50.958;10.994;2023-12-07T06:35:26;4.78;;;3.45;;
29906;SDS011;16776;50.958;10.994;2023-12-07T06:37:52;4.68;;;3.10;;
29906;SDS011;16776;50.958;10.994;2023-12-07T06:40:19;5.05;;;3.40;;
29906;SDS011;16776;50.958;10.994;2023-12-07T06:42:46;4.90;;;3.65;;
29906;SDS011;16776;50.958;10.994;2023-12-07T06:45:14;6.03;;;3.75;;
29906;SDS011;16776;50.958;10.994;2023-12-07T06:47:41;4.75;;;3.38;;
29906;SDS011;16776;50.958;10.994;2023-12-07T06:50:08;5.53;;;3.63;;
29906;SDS011;16776;50.958;10.994;2023-12-07T06:52:35;5.57;;;3.50;;
29906;SDS011;16776;50.958;10.994;2023-12-07T06:55:02;7.18;;;3.97;;
29906;SDS011;16776;50.958;10.994;2023-12-07T06:57:29;5.75;;;3.13;;
29906;SDS011;16776;50.958;10.994;2023-12-07T06:59:56;4.78;;;3.47;;
29906;SDS011;16776;50.958;10.994;2023-12-07T07:02:23;5.00;;;3.53;;
29906;SDS011;16776;50.958;10.994;2023-12-07T07:04:50;4.07;;;3.63;;
29906;SDS011;16776;50.958;10.994;2023-12-07T07:07:17;5.65;;;4.10;;
29906;SDS011;16776;50.958;10.994;2023-12-07T07:09:44;4.97;;;3.83;;
29906;SDS011;16776;50.958;10.994;2023-12-07T07:12:10;5.38;;;3.45;;
29906;SDS011;16776;50.958;10.994;2023-12-07T07:14:37;4.65;;;3.70;;
29906;SDS011;16776;50.958;10.994;2023-12-07T07:17:04;5.45;;;3.85;;
29906;SDS011;16776;50.958;10.994;2023-12-07T07:19:32;6.22;;;4.03;;
29906;SDS011;16776;50.958;10.994;2023-12-07T07:21:58;5.18;;;3.78;;
29906;SDS011;16776;50.958;10.994;2023-12-07T07:24:25;4.68;;;3.97;;
29906;SDS011;16776;50.958;10.994;2023-12-07T07:26:51;5.88;;;3.80;;
29906;SDS011;16776;50.958;10.994;2023-12-07T07:29:18;5.78;;;4.13;;
29906;SDS011;16776;50.958;10.994;2023-12-07T07:31:44;5.65;;;3.83;;
29906;SDS011;16776;50.958;10.994;2023-12-07T07:34:11;5.63;;;4.15;;
29906;SDS011;16776;50.958;10.994;2023-12-07T07:36:39;5.80;;;4.18;;
29906;SDS011;16776;50.958;10.994;2023-12-07T07:39:06;5.82;;;4.10;;
29906;SDS011;16776;50.958;10.994;2023-12-07T07:41:34;6.55;;;4.18;;
29906;SDS011;16776;50.958;10.994;2023-12-07T07:44:00;6.55;;;4.15;;
29906;SDS011;16776;50.958;10.994;2023-12-07T07:46:27;5.28;;;3.70;;
29906;SDS011;16776;50.958;10.994;2023-12-07T07:48:54;5.47;;;3.65;;
29906;SDS011;16776;50.958;10.994;2023-12-07T07:51:20;6.47;;;3.90;;
29906;SDS011;16776;50.958;10.994;2023-12-07T07:53:48;4.38;;;3.47;;
29906;SDS011;16776;50.958;10.994;2023-12-07T07:56:15;5.75;;;4.10;;
29906;SDS011;16776;50.958;10.994;2023-12-07T07:58:41;7.00;;;4.60;;
29906;SDS011;16776;50.958;10.994;2023-12-07T08:01:08;4.45;;;3.55;;
29906;SDS011;16776;50.958;10.994;2023-12-07T08:03:34;5.30;;;3.70;;
29906;SDS011;16776;50.958;10.994;2023-12-07T08:06:01;5.72;;;3.78;;
29906;SDS011;16776;50.958;10.994;2023-12-07T08:08:27;5.75;;;4.25;;
29906;SDS011;16776;50.958;10.994;2023-12-07T08:10:55;5.15;;;3.70;;
29906;SDS011;16776;50.958;10.994;2023-12-07T08:13:22;8.32;;;4.32;;
29906;SDS011;16776;50.958;10.994;2023-12-07T08:15:48;4.95;;;3.63;;
29906;SDS011;16776;50.958;10.994;2023-12-07T08:18:15;6.07;;;3.50;;
29906;SDS011;16776;50.958;10.994;2023-12-07T08:20:42;6.38;;;4.20;;
29906;SDS011;16776;50.958;10.994;2023-12-07T08:23:08;5.93;;;3.58;;
29906;SDS011;16776;50.958;10.994;2023-12-07T08:25:35;6.22;;;3.75;;
29906;SDS011;16776;50.958;10.994;2023-12-07T08:28:03;5.70;;;4.32;;
29906;SDS011;16776;50.958;10.994;2023-12-07T08:30:30;5.88;;;3.72;;
29906;SDS011;16776;50.958;10.994;2023-12-07T08:32:57;5.82;;;3.72;;
29906;SDS011;16776;50.958;10.994;2023-12-07T08:35:24;6.13;;;3.72;;
29906;SDS011;16776;50.958;10.994;2023-12-07T08:37:50;5.32;;;3.30;;
29906;SDS011;16776;50.958;10.994;2023-12-07T08:40:17;6.90;;;4.32;;
29906;SDS011;16776;50.958;10.994;2023-12-07T08:42:45;5.40;;;3.50;;
29906;SDS011;16776;50.958;10.994;2023-12-07T08:45:15;6.03;;;4.30;;
29906;SDS011;16776;50.958;10.994;2023-12-07T08:47:41;6.40;;;3.53;;
29906;SDS011;16776;50.958;10.994;2023-12-07T08:50:08;4.28;;;3.30;;
29906;SDS011;16776;50.958;10.994;2023-12-07T08:52:35;4.40;;;3.33;;
29906;SDS011;16776;50.958;10.994;2023-12-07T08:55:02;4.30;;;3.50;;
29906;SDS011;16776;50.958;10.994;2023-12-07T08:57:29;4.85;;;3.47;;
29906;SDS011;16776;50.958;10.994;2023-12-07T08:59:55;4.20;;;3.35;;
29906;SDS011;16776;50.958;10.994;2023-12-07T09:02:24;5.38;;;4.05;;
29906;SDS011;16776;50.958;10.994;2023-12-07T09:04:51;6.25;;;3.33;;
29906;SDS011;16776;50.958;10.994;2023-12-07T09:07:18;5.35;;;4.07;;
29906;SDS011;16776;50.958;10.994;2023-12-07T09:09:44;4.60;;;3.60;;
29906;SDS011;16776;50.958;10.994;2023-12-07T09:12:12;5.43;;;4.18;;
29906;SDS011;16776;50.958;10.994;2023-12-07T09:14:39;5.85;;;3.70;;
29906;SDS011;16776;50.958;10.994;2023-12-07T09:17:06;5.90;;;4.25;;
29906;SDS011;16776;50.958;10.994;2023-12-07T09:19:34;4.75;;;3.75;;
29906;SDS011;16776;50.958;10.994;2023-12-07T09:22:00;3.95;;;3.00;;
29906;SDS011;16776;50.958;10.994;2023-12-07T09:24:27;5.35;;;3.78;;
29906;SDS011;16776;50.958;10.994;2023-12-07T09:26:54;4.15;;;3.20;;
29906;SDS011;16776;50.958;10.994;2023-12-07T09:29:20;3.80;;;3.10;;
29906;SDS011;16776;50.958;10.994;2023-12-07T09:31:47;5.40;;;3.65;;
29906;SDS011;16776;50.958;10.994;2023-12-07T09:34:13;5.53;;;3.83;;
29906;SDS011;16776;50.958;10.994;2023-12-07T09:36:44;4.80;;;3.60;;
29906;SDS011;16776;50.958;10.994;2023-12-07T09:39:11;8.93;;;3.78;;
29906;SDS011;16776;50.958;10.994;2023-12-07T09:41:39;4.65;;;3.17;;
29906;SDS011;16776;50.958;10.994;2023-12-07T09:44:07;6.07;;;3.55;;
29906;SDS011;16776;50.958;10.994;2023-12-07T09:46:33;5.45;;;3.00;;
29906;SDS011;16776;50.958;10.994;2023-12-07T09:49:00;5.03;;;3.22;;
29906;SDS011;16776;50.958;10.994;2023-12-07T09:51:27;3.80;;;2.45;;
29906;SDS011;16776;50.958;10.994;2023-12-07T09:53:56;4.45;;;3.33;;
29906;SDS011;16776;50.958;10.994;2023-12-07T09:56:22;5.30;;;3.47;;
29906;SDS011;16776;50.958;10.994;2023-12-07T09:58:49;4.93;;;3.15;;
29906;SDS011;16776;50.958;10.994;2023-12-07T10:01:15;5.90;;;3.05;;
29906;SDS011;16776;50.958;10.994;2023-12-07T10:03:42;3.85;;;2.97;;
29906;SDS011;16776;50.958;10.994;2023-12-07T10:06:11;5.57;;;3.28;;
29906;SDS011;16776;50.958;10.994;2023-12-07T10:08:38;5.07;;;2.88;;
29906;SDS011;16776;50.958;10.994;2023-12-07T10:11:06;4.38;;;2.70;;
29906;SDS011;16776;50.958;10.994;2023-12-07T10:13:34;5.05;;;3.65;;
29906;SDS011;16776;50.958;10.994;2023-12-07T10:16:05;5.05;;;3.08;;
29906;SDS011;16776;50.958;10.994;2023-12-07T10:18:34;4.45;;;3.35;;
29906;SDS011;16776;50.958;10.994;2023-12-07T10:21:01;5.03;;;3.08;;
29906;SDS011;16776;50.958;10.994;2023-12-07T10:23:27;4.65;;;3.08;;
29906;SDS011;16776;50.958;10.994;2023-12-07T10:25:57;4.85;;;2.88;;
29906;SDS011;16776;50.958;10.994;2023-12-07T10:28:26;6.22;;;3.35;;
29906;SDS011;16776;50.958;10.994;2023-12-07T10:30:53;4.03;;;3.05;;
29906;SDS011;16776;50.958;10.994;2023-12-07T10:33:19;3.85;;;2.67;;
29906;SDS011;16776;50.958;10.994;2023-12-07T10:35:46;4.45;;;3.28;;
29906;SDS011;16776;50.958;10.994;2023-12-07T10:38:13;5.07;;;3.05;;
29906;SDS011;16776;50.958;10.994;2023-12-07T10:40:40;4.47;;;2.80;;
29906;SDS011;16776;50.958;10.994;2023-12-07T10:43:07;6.15;;;3.53;;
29906;SDS011;16776;50.958;10.994;2023-12-07T10:48:05;6.38;;;3.72;;
29906;SDS011;16776;50.958;10.994;2023-12-07T10:50:35;4.50;;;3.08;;
29906;SDS011;16776;50.958;10.994;2023-12-07T10:53:05;5.03;;;3.25;;
29906;SDS011;16776;50.958;10.994;2023-12-07T10:58:07;3.83;;;2.75;;
29906;SDS011;16776;50.958;10.994;2023-12-07T11:00:35;5.85;;;3.70;;
29906;SDS011;16776;50.958;10.994;2023-12-07T11:03:01;5.25;;;3.30;;
29906;SDS011;16776;50.958;10.994;2023-12-07T11:05:29;4.72;;;3.15;;
29906;SDS011;16776;50.958;10.994;2023-12-07T11:07:57;4.22;;;3.05;;
29906;SDS011;16776;50.958;10.994;2023-12-07T11:10:33;4.85;;;3.15;;
29906;SDS011;16776;50.958;10.994;2023-12-07T11:13:06;5.25;;;3.08;;
29906;SDS011;16776;50.958;10.994;2023-12-07T11:15:43;4.47;;;3.20;;
29906;SDS011;16776;50.958;10.994;2023-12-07T11:18:11;4.32;;;3.20;;
29906;SDS011;16776;50.958;10.994;2023-12-07T11:20:39;3.88;;;3.10;;
29906;SDS011;16776;50.958;10.994;2023-12-07T11:23:07;5.60;;;3.63;;
29906;SDS011;16776;50.958;10.994;2023-12-07T11:25:34;4.65;;;3.25;;
29906;SDS011;16776;50.958;10.994;2023-12-07T11:28:02;4.28;;;3.20;;
29906;SDS011;16776;50.958;10.994;2023-12-07T11:30:30;4.60;;;3.35;;
29906;SDS011;16776;50.958;10.994;2023-12-07T11:32:58;4.93;;;3.20;;
29906;SDS011;16776;50.958;10.994;2023-12-07T11:35:27;4.15;;;3.10;;
29906;SDS011;16776;50.958;10.994;2023-12-07T11:38:00;4.20;;;3.08;;
29906;SDS011;16776;50.958;10.994;2023-12-07T11:40:27;3.88;;;3.08;;
29906;SDS011;16776;50.958;10.994;2023-12-07T11:42:55;4.05;;;3.05;;
29906;SDS011;16776;50.958;10.994;2023-12-07T11:45:35;4.93;;;3.00;;
29906;SDS011;16776;50.958;10.994;2023-12-07T11:48:06;4.50;;;3.45;;
29906;SDS011;16776;50.958;10.994;2023-12-07T11:50:35;4.00;;;3.28;;
29906;SDS011;16776;50.958;10.994;2023-12-07T11:53:02;3.88;;;3.03;;
29906;SDS011;16776;50.958;10.994;2023-12-07T11:55:29;4.68;;;3.22;;
29906;SDS011;16776;50.958;10.994;2023-12-07T11:57:57;5.15;;;3.30;;
29906;SDS011;16776;50.958;10.994;2023-12-07T12:00:25;3.85;;;2.95;;
29906;SDS011;16776;50.958;10.994;2023-12-07T12:02:52;4.65;;;3.35;;
29906;SDS011;16776;50.958;10.994;2023-12-07T12:05:18;3.80;;;3.25;;
29906;SDS011;16776;50.958;10.994;2023-12-07T12:07:46;3.72;;;2.78;;
29906;SDS011;16776;50.958;10.994;2023-12-07T12:10:13;5.20;;;3.47;;
29906;SDS011;16776;50.958;10.994;2023-12-07T12:12:40;4.68;;;3.30;;
29906;SDS011;16776;50.958;10.994;2023-12-07T12:15:06;3.40;;;2.70;;
29906;SDS011;16776;50.958;10.994;2023-12-07T12:17:34;5.13;;;3.33;;
29906;SDS011;16776;50.958;10.994;2023-12-07T12:20:02;4.30;;;3.10;;
29906;SDS011;16776;50.958;10.994;2023-12-07T12:22:29;3.53;;;3.20;;
29906;SDS011;16776;50.958;10.994;2023-12-07T12:24:58;4.25;;;2.85;;
29906;SDS011;16776;50.958;10.994;2023-12-07T12:27:25;3.67;;;2.67;;
29906;SDS011;16776;50.958;10.994;2023-12-07T12:29:52;3.75;;;2.85;;
29906;SDS011;16776;50.958;10.994;2023-12-07T12:32:19;4.53;;;3.15;;
29906;SDS011;16776;50.958;10.994;2023-12-07T12:34:50;5.05;;;3.25;;
29906;SDS011;16776;50.958;10.994;2023-12-07T12:37:17;4.93;;;3.65;;
29906;SDS011;16776;50.958;10.994;2023-12-07T12:39:44;6.80;;;4.57;;
29906;SDS011;16776;50.958;10.994;2023-12-07T12:42:12;4.80;;;3.08;;
29906;SDS011;16776;50.958;10.994;2023-12-07T12:44:38;7.80;;;3.30;;
29906;SDS011;16776;50.958;10.994;2023-12-07T12:47:05;4.05;;;3.15;;
29906;SDS011;16776;50.958;10.994;2023-12-07T12:49:34;4.43;;;3.30;;
29906;SDS011;16776;50.958;10.994;2023-12-07T12:52:02;4.22;;;2.85;;
29906;SDS011;16776;50.958;10.994;2023-12-07T12:54:30;3.45;;;2.67;;
29906;SDS011;16776;50.958;10.994;2023-12-07T12:56:57;3.50;;;2.72;;
29906;SDS011;16776;50.958;10.994;2023-12-07T12:59:26;5.78;;;3.55;;
29906;SDS011;16776;50.958;10.994;2023-12-07T13:01:53;4.43;;;3.00;;
29906;SDS011;16776;50.958;10.994;2023-12-07T13:04:19;4.53;;;3.38;;
29906;SDS011;16776;50.958;10.994;2023-12-07T13:06:46;4.97;;;3.30;;
29906;SDS011;16776;50.958;10.994;2023-12-07T13:09:13;4.18;;;3.10;;
29906;SDS011;16776;50.958;10.994;2023-12-07T13:11:41;3.40;;;2.58;;
29906;SDS011;16776;50.958;10.994;2023-12-07T13:14:08;3.80;;;2.80;;
29906;SDS011;16776;50.958;10.994;2023-12-07T13:16:36;2.80;;;2.47;;
29906;SDS011;16776;50.958;10.994;2023-12-07T13:19:03;2.72;;;2.45;;
29906;SDS011;16776;50.958;10.994;2023-12-07T13:21:30;3.72;;;2.75;;
29906;SDS011;16776;50.958;10.994;2023-12-07T13:23:57;3.55;;;2.40;;
29906;SDS011;16776;50.958;10.994;2023-12-07T13:26:24;3.22;;;2.42;;
29906;SDS011;16776;50.958;10.994;2023-12-07T13:28:50;3.78;;;2.80;;
29906;SDS011;16776;50.958;10.994;2023-12-07T13:31:17;3.85;;;2.67;;
29906;SDS011;16776;50.958;10.994;2023-12-07T13:33:45;5.20;;;2.25;;
29906;SDS011;16776;50.958;10.994;2023-12-07T13:36:12;3.30;;;2.40;;
29906;SDS011;16776;50.958;10.994;2023-12-07T13:38:39;3.10;;;2.28;;
29906;SDS011;16776;50.958;10.994;2023-12-07T13:41:06;2.90;;;2.58;;
29906;SDS011;16776;50.958;10.994;2023-12-07T13:43:33;4.80;;;2.63;;
29906;SDS011;16776;50.958;10.994;2023-12-07T13:45:59;3.33;;;2.42;;
29906;SDS011;16776;50.958;10.994;2023-12-07T13:48:26;2.65;;;2.25;;
29906;SDS011;16776;50.958;10.994;2023-12-07T13:50:54;2.05;;;1.85;;
29906;SDS011;16776;50.958;10.994;2023-12-07T13:53:21;3.20;;;2.10;;
29906;SDS011;16776;50.958;10.994;2023-12-07T13:55:47;3.63;;;2.60;;
29906;SDS011;16776;50.958;10.994;2023-12-07T13:58:16;3.58;;;2.90;;
29906;SDS011;16776;50.958;10.994;2023-12-07T14:00:42;3.85;;;3.00;;
29906;SDS011;16776;50.958;10.994;2023-12-07T14:03:11;4.43;;;2.70;;
29906;SDS011;16776;50.958;10.994;2023-12-07T14:05:37;5.75;;;3.80;;
29906;SDS011;16776;50.958;10.994;2023-12-07T14:08:06;5.00;;;3.17;;
29906;SDS011;16776;50.958;10.994;2023-12-07T14:10:33;5.72;;;3.53;;
29906;SDS011;16776;50.958;10.994;2023-12-07T14:13:00;4.63;;;2.67;;
29906;SDS011;16776;50.958;10.994;2023-12-07T14:15:27;2.03;;;1.88;;
29906;SDS011;16776;50.958;10.994;2023-12-07T14:17:54;2.15;;;1.80;;
29906;SDS011;16776;50.958;10.994;2023-12-07T14:20:20;1.80;;;1.50;;
29906;SDS011;16776;50.958;10.994;2023-12-07T14:22:50;2.20;;;1.75;;
29906;SDS011;16776;50.958;10.994;2023-12-07T14:25:18;1.75;;;1.30;;
29906;SDS011;16776;50.958;10.994;2023-12-07T14:27:45;1.95;;;1.17;;
29906;SDS011;16776;50.958;10.994;2023-12-07T14:30:12;1.00;;;0.90;;
29906;SDS011;16776;50.958;10.994;2023-12-07T14:32:41;1.33;;;1.00;;
29906;SDS011;16776;50.958;10.994;2023-12-07T14:35:09;1.55;;;1.25;;
29906;SDS011;16776;50.958;10.994;2023-12-07T14:37:38;3.08;;;1.30;;
29906;SDS011;16776;50.958;10.994;2023-12-07T14:40:06;1.73;;;1.20;;
29906;SDS011;16776;50.958;10.994;2023-12-07T14:42:35;2.25;;;1.30;;